sensor_id;sensor_type;location;lat;lon;timestamp;temperature;humidity
67722;SHT31;58309;45.292;11.820;2022-12-19T00:03:56;0.83;99.99
67722;SHT31;58309;45.292;11.820;2022-12-19T00:06:23;0.82;99.99
67722;SHT31;58309;45.292;11.820;2022-12-19T00:08:50;0.83;99.99
67722;SHT31;58309;45.292;11.820;2022-12-19T00:11:18;0.81;99.99
67722;SHT31;58309;45.292;11.820;2022-12-19T00:13:45;0.78;99.99
67722;SHT31;58309;45.292;11.820;2022-12-19T00:16:14;0.75;99.99
67722;SHT31;58309;45.292;11.820;2022-12-19T00:18:41;0.75;99.99
67722;SHT31;58309;45.292;11.820;2022-12-19T00:21:09;0.73;99.99
67722;SHT31;58309;45.292;11.820;2022-12-19T00:23:34;0.71;99.99
67722;SHT31;58309;45.292;11.820;2022-12-19T00:26:11;0.65;99.99
67722;SHT31;58309;45.292;11.820;2022-12-19T00:28:37;0.58;99.99
67722;SHT31;58309;45.292;11.820;2022-12-19T00:31:04;0.54;99.99
67722;SHT31;58309;45.292;11.820;2022-12-19T00:33:30;0.52;99.99
67722;SHT31;58309;45.292;11.820;2022-12-19T00:36:03;0.57;99.99
67722;SHT31;58309;45.292;11.820;2022-12-19T00:38:29;0.60;99.99
67722;SHT31;58309;45.292;11.820;2022-12-19T00:40:55;0.54;99.99
67722;SHT31;58309;45.292;11.820;2022-12-19T00:43:20;0.61;99.99
67722;SHT31;58309;45.292;11.820;2022-12-19T00:45:46;0.65;99.80
67722;SHT31;58309;45.292;11.820;2022-12-19T00:48:11;0.75;99.76
67722;SHT31;58309;45.292;11.820;2022-12-19T00:50:37;0.75;99.81
67722;SHT31;58309;45.292;11.820;2022-12-19T00:53:03;0.79;99.78
67722;SHT31;58309;45.292;11.820;2022-12-19T00:55:28;0.85;99.53
67722;SHT31;58309;45.292;11.820;2022-12-19T00:57:54;0.83;99.54
67722;SHT31;58309;45.292;11.820;2022-12-19T01:00:19;0.95;99.23
67722;SHT31;58309;45.292;11.820;2022-12-19T01:02:45;0.96;99.52
67722;SHT31;58309;45.292;11.820;2022-12-19T01:05:10;1.03;99.41
67722;SHT31;58309;45.292;11.820;2022-12-19T01:07:36;1.06;99.29
67722;SHT31;58309;45.292;11.820;2022-12-19T01:10:03;1.04;99.18
67722;SHT31;58309;45.292;11.820;2022-12-19T01:12:29;1.03;99.07
67722;SHT31;58309;45.292;11.820;2022-12-19T01:15:10;1.02;99.18
67722;SHT31;58309;45.292;11.820;2022-12-19T01:17:36;1.00;99.15
67722;SHT31;58309;45.292;11.820;2022-12-19T01:20:02;1.07;99.50
67722;SHT31;58309;45.292;11.820;2022-12-19T01:22:28;1.09;99.49
67722;SHT31;58309;45.292;11.820;2022-12-19T01:24:53;1.09;99.31
67722;SHT31;58309;45.292;11.820;2022-12-19T01:27:19;1.15;98.69
67722;SHT31;58309;45.292;11.820;2022-12-19T01:29:44;1.17;98.41
67722;SHT31;58309;45.292;11.820;2022-12-19T01:32:10;1.22;98.25
67722;SHT31;58309;45.292;11.820;2022-12-19T01:34:35;1.15;98.53
67722;SHT31;58309;45.292;11.820;2022-12-19T01:37:01;1.15;98.78
67722;SHT31;58309;45.292;11.820;2022-12-19T01:39:27;1.13;99.06
67722;SHT31;58309;45.292;11.820;2022-12-19T01:41:52;1.13;99.16
67722;SHT31;58309;45.292;11.820;2022-12-19T01:44:18;1.19;98.54
67722;SHT31;58309;45.292;11.820;2022-12-19T01:46:46;1.16;98.68
67722;SHT31;58309;45.292;11.820;2022-12-19T01:49:27;1.17;98.60
67722;SHT31;58309;45.292;11.820;2022-12-19T01:51:55;1.20;98.02
67722;SHT31;58309;45.292;11.820;2022-12-19T01:54:25;1.22;98.12
67722;SHT31;58309;45.292;11.820;2022-12-19T01:56:55;1.20;98.34
67722;SHT31;58309;45.292;11.820;2022-12-19T02:01:57;1.17;97.89
67722;SHT31;58309;45.292;11.820;2022-12-19T02:04:25;1.16;97.93
67722;SHT31;58309;45.292;11.820;2022-12-19T02:06:53;1.15;97.89
67722;SHT31;58309;45.292;11.820;2022-12-19T02:09:19;1.10;97.63
67722;SHT31;58309;45.292;11.820;2022-12-19T02:11:48;1.15;97.76
67722;SHT31;58309;45.292;11.820;2022-12-19T02:14:14;1.12;97.96
67722;SHT31;58309;45.292;11.820;2022-12-19T02:21:58;1.09;97.77
67722;SHT31;58309;45.292;11.820;2022-12-19T02:30:06;1.15;97.14
67722;SHT31;58309;45.292;11.820;2022-12-19T02:40:45;1.12;96.27
67722;SHT31;58309;45.292;11.820;2022-12-19T02:43:15;1.04;96.53
67722;SHT31;58309;45.292;11.820;2022-12-19T02:45:42;1.02;96.47
67722;SHT31;58309;45.292;11.820;2022-12-19T02:48:09;0.99;96.18
67722;SHT31;58309;45.292;11.820;2022-12-19T02:50:41;0.93;95.87
67722;SHT31;58309;45.292;11.820;2022-12-19T02:53:13;0.88;96.16
67722;SHT31;58309;45.292;11.820;2022-12-19T02:55:46;0.82;95.90
67722;SHT31;58309;45.292;11.820;2022-12-19T03:04:15;0.55;97.07
67722;SHT31;58309;45.292;11.820;2022-12-19T03:12:27;0.40;98.31
67722;SHT31;58309;45.292;11.820;2022-12-19T03:14:56;0.36;98.29
67722;SHT31;58309;45.292;11.820;2022-12-19T03:17:24;0.32;98.17
67722;SHT31;58309;45.292;11.820;2022-12-19T03:19:50;0.27;98.26
67722;SHT31;58309;45.292;11.820;2022-12-19T03:22:16;0.20;97.70
67722;SHT31;58309;45.292;11.820;2022-12-19T03:24:41;0.14;97.65
67722;SHT31;58309;45.292;11.820;2022-12-19T03:27:10;0.18;98.11
67722;SHT31;58309;45.292;11.820;2022-12-19T03:29:40;0.09;98.04
67722;SHT31;58309;45.292;11.820;2022-12-19T03:32:14;0.01;98.03
67722;SHT31;58309;45.292;11.820;2022-12-19T03:34:56;0.00;98.15
67722;SHT31;58309;45.292;11.820;2022-12-19T03:37:26;-0.01;97.97
67722;SHT31;58309;45.292;11.820;2022-12-19T03:39:55;-0.08;97.92
67722;SHT31;58309;45.292;11.820;2022-12-19T03:42:24;-0.14;98.04
67722;SHT31;58309;45.292;11.820;2022-12-19T03:45:10;-0.17;98.28
67722;SHT31;58309;45.292;11.820;2022-12-19T03:47:41;-0.28;98.22
67722;SHT31;58309;45.292;11.820;2022-12-19T03:50:09;-0.34;98.25
67722;SHT31;58309;45.292;11.820;2022-12-19T03:52:44;-0.39;98.71
67722;SHT31;58309;45.292;11.820;2022-12-19T03:55:25;-0.24;99.48
67722;SHT31;58309;45.292;11.820;2022-12-19T03:57:59;-0.21;99.17
67722;SHT31;58309;45.292;11.820;2022-12-19T04:00:28;-0.18;99.11
67722;SHT31;58309;45.292;11.820;2022-12-19T04:02:56;-0.14;99.03
67722;SHT31;58309;45.292;11.820;2022-12-19T04:05:25;0.00;98.11
67722;SHT31;58309;45.292;11.820;2022-12-19T04:07:53;-0.01;98.06
67722;SHT31;58309;45.292;11.820;2022-12-19T04:10:21;0.10;96.92
67722;SHT31;58309;45.292;11.820;2022-12-19T04:12:58;0.04;97.01
67722;SHT31;58309;45.292;11.820;2022-12-19T04:15:32;-0.03;97.04
67722;SHT31;58309;45.292;11.820;2022-12-19T04:18:00;-0.08;97.37
67722;SHT31;58309;45.292;11.820;2022-12-19T04:20:28;-0.11;97.95
67722;SHT31;58309;45.292;11.820;2022-12-19T04:23:16;-0.07;98.02
67722;SHT31;58309;45.292;11.820;2022-12-19T04:25:47;-0.13;98.18
67722;SHT31;58309;45.292;11.820;2022-12-19T04:28:24;-0.18;98.28
67722;SHT31;58309;45.292;11.820;2022-12-19T04:30:52;-0.22;98.46
67722;SHT31;58309;45.292;11.820;2022-12-19T04:33:18;-0.35;98.62
67722;SHT31;58309;45.292;11.820;2022-12-19T04:35:44;-0.44;98.52
67722;SHT31;58309;45.292;11.820;2022-12-19T04:38:10;-0.49;98.89
67722;SHT31;58309;45.292;11.820;2022-12-19T04:40:35;-0.48;99.47
67722;SHT31;58309;45.292;11.820;2022-12-19T04:43:01;-0.55;99.37
67722;SHT31;58309;45.292;11.820;2022-12-19T04:45:27;-0.66;98.93
67722;SHT31;58309;45.292;11.820;2022-12-19T04:47:52;-0.73;99.05
67722;SHT31;58309;45.292;11.820;2022-12-19T04:50:18;-0.85;98.99
67722;SHT31;58309;45.292;11.820;2022-12-19T04:52:43;-0.80;99.92
67722;SHT31;58309;45.292;11.820;2022-12-19T04:55:09;-0.72;99.99
67722;SHT31;58309;45.292;11.820;2022-12-19T04:57:34;-0.73;99.99
67722;SHT31;58309;45.292;11.820;2022-12-19T05:00:00;-0.68;99.99
67722;SHT31;58309;45.292;11.820;2022-12-19T05:02:28;-0.72;99.68
67722;SHT31;58309;45.292;11.820;2022-12-19T05:04:54;-0.78;99.47
67722;SHT31;58309;45.292;11.820;2022-12-19T05:07:19;-0.79;99.71
67722;SHT31;58309;45.292;11.820;2022-12-19T05:09:45;-0.76;99.93
67722;SHT31;58309;45.292;11.820;2022-12-19T05:12:10;-0.73;99.99
67722;SHT31;58309;45.292;11.820;2022-12-19T05:14:36;-0.75;99.79
67722;SHT31;58309;45.292;11.820;2022-12-19T05:17:02;-0.76;99.75
67722;SHT31;58309;45.292;11.820;2022-12-19T05:19:28;-0.79;99.59
67722;SHT31;58309;45.292;11.820;2022-12-19T05:21:53;-0.79;99.85
67722;SHT31;58309;45.292;11.820;2022-12-19T05:24:20;-0.80;99.78
67722;SHT31;58309;45.292;11.820;2022-12-19T05:26:47;-0.80;99.62
67722;SHT31;58309;45.292;11.820;2022-12-19T05:29:13;-0.80;99.57
67722;SHT31;58309;45.292;11.820;2022-12-19T05:31:39;-0.86;99.48
67722;SHT31;58309;45.292;11.820;2022-12-19T05:34:04;-0.90;99.45
67722;SHT31;58309;45.292;11.820;2022-12-19T05:36:30;-0.80;99.99
67722;SHT31;58309;45.292;11.820;2022-12-19T05:38:55;-0.75;99.99
67722;SHT31;58309;45.292;11.820;2022-12-19T05:41:21;-0.75;99.99
67722;SHT31;58309;45.292;11.820;2022-12-19T05:43:52;-0.68;99.99
67722;SHT31;58309;45.292;11.820;2022-12-19T05:46:18;-0.68;99.91
67722;SHT31;58309;45.292;11.820;2022-12-19T05:48:43;-0.72;99.77
67722;SHT31;58309;45.292;11.820;2022-12-19T05:51:09;-0.70;99.98
67722;SHT31;58309;45.292;11.820;2022-12-19T05:53:35;-0.66;99.99
67722;SHT31;58309;45.292;11.820;2022-12-19T05:56:06;-0.66;99.99
67722;SHT31;58309;45.292;11.820;2022-12-19T05:58:32;-0.72;99.99
67722;SHT31;58309;45.292;11.820;2022-12-19T06:01:13;-0.72;99.99
67722;SHT31;58309;45.292;11.820;2022-12-19T06:03:39;-0.65;99.99
67722;SHT31;58309;45.292;11.820;2022-12-19T06:06:08;-0.55;99.99
67722;SHT31;58309;45.292;11.820;2022-12-19T06:08:34;-0.52;99.99
67722;SHT31;58309;45.292;11.820;2022-12-19T06:11:02;-0.42;99.99
67722;SHT31;58309;45.292;11.820;2022-12-19T06:13:29;-0.30;99.99
67722;SHT31;58309;45.292;11.820;2022-12-19T06:16:14;-0.11;99.99
67722;SHT31;58309;45.292;11.820;2022-12-19T06:18:41;0.03;99.99
67722;SHT31;58309;45.292;11.820;2022-12-19T06:21:10;0.18;99.99
67722;SHT31;58309;45.292;11.820;2022-12-19T06:23:37;0.28;99.99
67722;SHT31;58309;45.292;11.820;2022-12-19T06:26:05;0.37;99.99
67722;SHT31;58309;45.292;11.820;2022-12-19T06:28:31;0.45;99.99
67722;SHT31;58309;45.292;11.820;2022-12-19T06:30:58;0.48;99.58
67722;SHT31;58309;45.292;11.820;2022-12-19T06:33:25;0.50;98.71
67722;SHT31;58309;45.292;11.820;2022-12-19T06:36:06;0.44;98.03
67722;SHT31;58309;45.292;11.820;2022-12-19T06:38:33;0.45;98.24
67722;SHT31;58309;45.292;11.820;2022-12-19T06:40:59;0.40;98.00
67722;SHT31;58309;45.292;11.820;2022-12-19T06:43:45;0.38;98.16
67722;SHT31;58309;45.292;11.820;2022-12-19T06:46:10;0.36;98.50
67722;SHT31;58309;45.292;11.820;2022-12-19T06:48:36;0.40;98.66
67722;SHT31;58309;45.292;11.820;2022-12-19T06:51:01;0.40;98.55
67722;SHT31;58309;45.292;11.820;2022-12-19T06:53:27;0.45;98.52
67722;SHT31;58309;45.292;11.820;2022-12-19T06:55:55;0.50;98.77
67722;SHT31;58309;45.292;11.820;2022-12-19T06:58:21;0.51;98.82
67722;SHT31;58309;45.292;11.820;2022-12-19T07:00:47;0.50;98.08
67722;SHT31;58309;45.292;11.820;2022-12-19T07:03:16;0.50;98.24
67722;SHT31;58309;45.292;11.820;2022-12-19T07:05:43;0.48;98.45
67722;SHT31;58309;45.292;11.820;2022-12-19T07:08:09;0.45;98.40
67722;SHT31;58309;45.292;11.820;2022-12-19T07:10:34;0.44;98.21
67722;SHT31;58309;45.292;11.820;2022-12-19T07:13:00;0.42;98.13
67722;SHT31;58309;45.292;11.820;2022-12-19T07:15:26;0.47;98.07
67722;SHT31;58309;45.292;11.820;2022-12-19T07:17:52;0.48;98.08
67722;SHT31;58309;45.292;11.820;2022-12-19T07:20:19;0.54;98.42
67722;SHT31;58309;45.292;11.820;2022-12-19T07:22:45;0.62;98.06
67722;SHT31;58309;45.292;11.820;2022-12-19T07:25:11;0.69;98.26
67722;SHT31;58309;45.292;11.820;2022-12-19T07:27:37;0.76;98.46
67722;SHT31;58309;45.292;11.820;2022-12-19T07:30:03;0.86;97.66
67722;SHT31;58309;45.292;11.820;2022-12-19T07:32:30;0.97;98.11
67722;SHT31;58309;45.292;11.820;2022-12-19T07:34:55;1.04;97.35
67722;SHT31;58309;45.292;11.820;2022-12-19T07:37:21;1.07;96.49
67722;SHT31;58309;45.292;11.820;2022-12-19T07:39:47;1.15;96.36
67722;SHT31;58309;45.292;11.820;2022-12-19T07:42:13;1.22;96.29
67722;SHT31;58309;45.292;11.820;2022-12-19T07:44:39;1.27;96.46
67722;SHT31;58309;45.292;11.820;2022-12-19T07:47:04;1.39;96.74
67722;SHT31;58309;45.292;11.820;2022-12-19T07:49:33;1.50;96.50
67722;SHT31;58309;45.292;11.820;2022-12-19T07:51:59;1.65;95.79
67722;SHT31;58309;45.292;11.820;2022-12-19T07:54:24;1.86;95.28
67722;SHT31;58309;45.292;11.820;2022-12-19T07:56:50;1.89;93.92
67722;SHT31;58309;45.292;11.820;2022-12-19T07:59:16;1.98;94.07
67722;SHT31;58309;45.292;11.820;2022-12-19T08:01:41;2.06;94.73
67722;SHT31;58309;45.292;11.820;2022-12-19T08:04:07;2.19;93.89
67722;SHT31;58309;45.292;11.820;2022-12-19T08:06:32;2.36;94.76
67722;SHT31;58309;45.292;11.820;2022-12-19T08:08:58;2.49;92.80
67722;SHT31;58309;45.292;11.820;2022-12-19T08:11:24;2.68;92.98
67722;SHT31;58309;45.292;11.820;2022-12-19T08:13:55;2.87;91.49
67722;SHT31;58309;45.292;11.820;2022-12-19T08:16:21;3.03;91.62
67722;SHT31;58309;45.292;11.820;2022-12-19T08:18:48;3.12;90.93
67722;SHT31;58309;45.292;11.820;2022-12-19T08:21:14;3.12;89.09
67722;SHT31;58309;45.292;11.820;2022-12-19T08:23:39;3.19;90.29
67722;SHT31;58309;45.292;11.820;2022-12-19T08:26:09;3.32;91.11
67722;SHT31;58309;45.292;11.820;2022-12-19T08:28:35;3.40;91.46
67722;SHT31;58309;45.292;11.820;2022-12-19T08:31:06;3.56;92.32
67722;SHT31;58309;45.292;11.820;2022-12-19T08:33:32;3.60;88.39
67722;SHT31;58309;45.292;11.820;2022-12-19T08:35:57;3.82;87.31
67722;SHT31;58309;45.292;11.820;2022-12-19T08:38:23;3.97;86.97
67722;SHT31;58309;45.292;11.820;2022-12-19T08:40:52;4.21;85.92
67722;SHT31;58309;45.292;11.820;2022-12-19T08:43:20;4.24;84.11
67722;SHT31;58309;45.292;11.820;2022-12-19T08:45:49;4.31;83.05
67722;SHT31;58309;45.292;11.820;2022-12-19T08:48:16;4.59;83.50
67722;SHT31;58309;45.292;11.820;2022-12-19T08:50:55;4.71;84.39
67722;SHT31;58309;45.292;11.820;2022-12-19T08:53:22;4.69;83.84
67722;SHT31;58309;45.292;11.820;2022-12-19T08:56:05;4.83;83.00
67722;SHT31;58309;45.292;11.820;2022-12-19T08:58:32;5.00;82.88
67722;SHT31;58309;45.292;11.820;2022-12-19T09:00:59;5.46;82.04
67722;SHT31;58309;45.292;11.820;2022-12-19T09:03:24;5.68;80.54
67722;SHT31;58309;45.292;11.820;2022-12-19T09:06:09;5.69;75.23
67722;SHT31;58309;45.292;11.820;2022-12-19T09:08:36;5.79;76.33
67722;SHT31;58309;45.292;11.820;2022-12-19T09:11:06;5.89;73.15
67722;SHT31;58309;45.292;11.820;2022-12-19T09:13:33;5.94;74.33
67722;SHT31;58309;45.292;11.820;2022-12-19T09:18:43;5.78;72.85
67722;SHT31;58309;45.292;11.820;2022-12-19T09:21:09;5.59;73.32
67722;SHT31;58309;45.292;11.820;2022-12-19T09:23:35;5.52;73.65
67722;SHT31;58309;45.292;11.820;2022-12-19T09:26:03;5.64;74.92
67722;SHT31;58309;45.292;11.820;2022-12-19T09:28:29;5.78;74.53
67722;SHT31;58309;45.292;11.820;2022-12-19T09:31:02;5.92;73.16
67722;SHT31;58309;45.292;11.820;2022-12-19T09:33:30;5.65;72.61
67722;SHT31;58309;45.292;11.820;2022-12-19T09:35:57;5.69;74.03
67722;SHT31;58309;45.292;11.820;2022-12-19T09:38:23;5.87;73.94
67722;SHT31;58309;45.292;11.820;2022-12-19T09:46:19;6.37;71.70
67722;SHT31;58309;45.292;11.820;2022-12-19T09:48:53;6.66;69.95
67722;SHT31;58309;45.292;11.820;2022-12-19T09:51:37;6.97;69.87
67722;SHT31;58309;45.292;11.820;2022-12-19T09:54:16;7.01;70.89
67722;SHT31;58309;45.292;11.820;2022-12-19T09:56:43;7.62;67.50
67722;SHT31;58309;45.292;11.820;2022-12-19T09:59:28;8.39;66.72
67722;SHT31;58309;45.292;11.820;2022-12-19T10:04:35;8.15;65.65
67722;SHT31;58309;45.292;11.820;2022-12-19T10:07:01;8.08;66.32
67722;SHT31;58309;45.292;11.820;2022-12-19T10:09:33;7.90;67.29
67722;SHT31;58309;45.292;11.820;2022-12-19T10:17:25;7.30;66.07
67722;SHT31;58309;45.292;11.820;2022-12-19T10:30:38;6.33;67.62
67722;SHT31;58309;45.292;11.820;2022-12-19T10:33:30;6.37;68.06
67722;SHT31;58309;45.292;11.820;2022-12-19T10:35:59;6.19;68.21
67722;SHT31;58309;45.292;11.820;2022-12-19T10:38:31;6.19;69.45
67722;SHT31;58309;45.292;11.820;2022-12-19T10:41:21;6.23;66.85
67722;SHT31;58309;45.292;11.820;2022-12-19T10:44:05;6.20;67.70
67722;SHT31;58309;45.292;11.820;2022-12-19T10:49:18;6.20;67.75
67722;SHT31;58309;45.292;11.820;2022-12-19T10:57:18;5.99;69.86
67722;SHT31;58309;45.292;11.820;2022-12-19T11:00:15;6.02;68.34
67722;SHT31;58309;45.292;11.820;2022-12-19T11:02:46;6.13;68.76
67722;SHT31;58309;45.292;11.820;2022-12-19T11:05:26;6.09;67.48
67722;SHT31;58309;45.292;11.820;2022-12-19T11:10:49;6.18;68.51
67722;SHT31;58309;45.292;11.820;2022-12-19T11:13:26;6.09;68.29
67722;SHT31;58309;45.292;11.820;2022-12-19T11:15:55;5.95;68.81
67722;SHT31;58309;45.292;11.820;2022-12-19T11:18:21;6.06;68.62
67722;SHT31;58309;45.292;11.820;2022-12-19T11:21:02;6.09;71.35
67722;SHT31;58309;45.292;11.820;2022-12-19T11:23:29;6.10;70.28
67722;SHT31;58309;45.292;11.820;2022-12-19T11:26:04;6.03;71.09
67722;SHT31;58309;45.292;11.820;2022-12-19T11:31:22;5.99;71.31
67722;SHT31;58309;45.292;11.820;2022-12-19T11:34:00;6.10;70.10
67722;SHT31;58309;45.292;11.820;2022-12-19T11:37:00;6.22;70.18
67722;SHT31;58309;45.292;11.820;2022-12-19T11:39:43;6.23;70.21
67722;SHT31;58309;45.292;11.820;2022-12-19T11:42:43;6.40;71.66
67722;SHT31;58309;45.292;11.820;2022-12-19T11:45:19;6.53;72.01
67722;SHT31;58309;45.292;11.820;2022-12-19T11:48:02;6.57;69.97
67722;SHT31;58309;45.292;11.820;2022-12-19T11:50:39;6.63;70.05
67722;SHT31;58309;45.292;11.820;2022-12-19T11:53:14;6.74;69.11
67722;SHT31;58309;45.292;11.820;2022-12-19T11:55:55;6.83;68.81
67722;SHT31;58309;45.292;11.820;2022-12-19T11:58:23;6.92;69.47
67722;SHT31;58309;45.292;11.820;2022-12-19T12:03:34;7.02;72.64
67722;SHT31;58309;45.292;11.820;2022-12-19T12:06:16;6.95;76.58
67722;SHT31;58309;45.292;11.820;2022-12-19T12:08:51;6.81;78.29
67722;SHT31;58309;45.292;11.820;2022-12-19T12:14:22;6.63;79.44
67722;SHT31;58309;45.292;11.820;2022-12-19T12:22:43;6.06;82.22
67722;SHT31;58309;45.292;11.820;2022-12-19T12:25:22;5.91;80.20
67722;SHT31;58309;45.292;11.820;2022-12-19T12:30:19;5.91;81.41
67722;SHT31;58309;45.292;11.820;2022-12-19T12:40:57;6.15;81.78
67722;SHT31;58309;45.292;11.820;2022-12-19T12:46:24;6.37;78.59
67722;SHT31;58309;45.292;11.820;2022-12-19T12:49:04;6.56;78.90
67722;SHT31;58309;45.292;11.820;2022-12-19T12:51:31;6.56;76.99
67722;SHT31;58309;45.292;11.820;2022-12-19T12:54:06;6.56;77.43
67722;SHT31;58309;45.292;11.820;2022-12-19T12:56:34;6.63;77.49
67722;SHT31;58309;45.292;11.820;2022-12-19T12:59:02;6.51;76.35
67722;SHT31;58309;45.292;11.820;2022-12-19T13:06:59;6.51;74.02
67722;SHT31;58309;45.292;11.820;2022-12-19T13:09:28;6.43;71.51
67722;SHT31;58309;45.292;11.820;2022-12-19T13:12:30;6.51;72.65
67722;SHT31;58309;45.292;11.820;2022-12-19T13:15:28;6.40;73.36
67722;SHT31;58309;45.292;11.820;2022-12-19T13:23:07;6.61;72.18
67722;SHT31;58309;45.292;11.820;2022-12-19T13:28:15;6.53;73.00
67722;SHT31;58309;45.292;11.820;2022-12-19T13:36:46;6.46;78.68
67722;SHT31;58309;45.292;11.820;2022-12-19T13:39:46;6.36;79.28
67722;SHT31;58309;45.292;11.820;2022-12-19T13:42:25;6.30;79.25
67722;SHT31;58309;45.292;11.820;2022-12-19T13:45:28;6.29;78.62
67722;SHT31;58309;45.292;11.820;2022-12-19T13:47:57;6.34;75.05
67722;SHT31;58309;45.292;11.820;2022-12-19T13:50:33;6.43;72.99
67722;SHT31;58309;45.292;11.820;2022-12-19T13:53:00;6.53;71.50
67722;SHT31;58309;45.292;11.820;2022-12-19T13:55:29;6.58;71.60
67722;SHT31;58309;45.292;11.820;2022-12-19T13:57:55;6.67;70.38
67722;SHT31;58309;45.292;11.820;2022-12-19T14:00:30;6.80;73.90
67722;SHT31;58309;45.292;11.820;2022-12-19T14:02:59;6.80;72.03
67722;SHT31;58309;45.292;11.820;2022-12-19T14:05:26;6.78;76.76
67722;SHT31;58309;45.292;11.820;2022-12-19T14:07:53;6.73;78.21
67722;SHT31;58309;45.292;11.820;2022-12-19T14:10:27;6.60;80.01
67722;SHT31;58309;45.292;11.820;2022-12-19T14:12:54;6.40;80.39
67722;SHT31;58309;45.292;11.820;2022-12-19T14:15:43;6.08;80.78
67722;SHT31;58309;45.292;11.820;2022-12-19T14:18:27;5.85;81.14
67722;SHT31;58309;45.292;11.820;2022-12-19T14:23:37;5.51;82.29
67722;SHT31;58309;45.292;11.820;2022-12-19T14:26:05;5.43;84.17
67722;SHT31;58309;45.292;11.820;2022-12-19T14:28:48;5.38;84.57
67722;SHT31;58309;45.292;11.820;2022-12-19T14:31:15;5.30;84.81
67722;SHT31;58309;45.292;11.820;2022-12-19T14:33:45;5.23;85.42
67722;SHT31;58309;45.292;11.820;2022-12-19T14:36:11;5.13;85.86
67722;SHT31;58309;45.292;11.820;2022-12-19T14:38:37;5.01;86.13
67722;SHT31;58309;45.292;11.820;2022-12-19T14:41:04;4.92;87.20
67722;SHT31;58309;45.292;11.820;2022-12-19T14:43:31;4.78;87.19
67722;SHT31;58309;45.292;11.820;2022-12-19T14:51:18;4.37;88.43
67722;SHT31;58309;45.292;11.820;2022-12-19T14:56:58;4.17;89.90
67722;SHT31;58309;45.292;11.820;2022-12-19T14:59:42;4.11;90.12
67722;SHT31;58309;45.292;11.820;2022-12-19T15:02:29;4.06;90.41
67722;SHT31;58309;45.292;11.820;2022-12-19T15:05:05;3.97;90.18
67722;SHT31;58309;45.292;11.820;2022-12-19T15:07:32;3.94;90.98
67722;SHT31;58309;45.292;11.820;2022-12-19T15:10:07;3.86;91.14
67722;SHT31;58309;45.292;11.820;2022-12-19T15:12:53;3.82;91.74
67722;SHT31;58309;45.292;11.820;2022-12-19T15:15:59;3.69;92.00
67722;SHT31;58309;45.292;11.820;2022-12-19T15:21:02;3.53;92.03
67722;SHT31;58309;45.292;11.820;2022-12-19T15:23:29;3.42;92.18
67722;SHT31;58309;45.292;11.820;2022-12-19T15:25:58;3.34;92.20
67722;SHT31;58309;45.292;11.820;2022-12-19T15:28:45;3.18;92.17
67722;SHT31;58309;45.292;11.820;2022-12-19T15:31:28;3.11;93.48
67722;SHT31;58309;45.292;11.820;2022-12-19T15:33:55;3.05;93.90
67722;SHT31;58309;45.292;11.820;2022-12-19T15:36:21;3.01;94.20
67722;SHT31;58309;45.292;11.820;2022-12-19T15:38:46;2.98;94.58
67722;SHT31;58309;45.292;11.820;2022-12-19T15:41:16;2.85;94.14
67722;SHT31;58309;45.292;11.820;2022-12-19T15:43:45;2.79;94.32
67722;SHT31;58309;45.292;11.820;2022-12-19T15:46:11;2.67;94.56
67722;SHT31;58309;45.292;11.820;2022-12-19T15:48:39;2.56;94.61
67722;SHT31;58309;45.292;11.820;2022-12-19T15:51:10;2.49;95.02
67722;SHT31;58309;45.292;11.820;2022-12-19T15:53:36;2.50;96.66
67722;SHT31;58309;45.292;11.820;2022-12-19T15:56:01;2.50;96.38
67722;SHT31;58309;45.292;11.820;2022-12-19T15:58:28;2.49;96.74
67722;SHT31;58309;45.292;11.820;2022-12-19T16:01:02;2.49;96.98
67722;SHT31;58309;45.292;11.820;2022-12-19T16:03:29;2.54;97.40
67722;SHT31;58309;45.292;11.820;2022-12-19T16:05:55;2.50;96.68
67722;SHT31;58309;45.292;11.820;2022-12-19T16:08:23;2.47;96.65
67722;SHT31;58309;45.292;11.820;2022-12-19T16:10:54;2.43;96.95
67722;SHT31;58309;45.292;11.820;2022-12-19T16:13:23;2.37;96.71
67722;SHT31;58309;45.292;11.820;2022-12-19T16:15:50;2.33;96.74
67722;SHT31;58309;45.292;11.820;2022-12-19T16:18:16;2.28;96.80
67722;SHT31;58309;45.292;11.820;2022-12-19T16:20:43;2.19;96.79
67722;SHT31;58309;45.292;11.820;2022-12-19T16:23:09;2.12;96.68
67722;SHT31;58309;45.292;11.820;2022-12-19T16:25:46;2.06;97.10
67722;SHT31;58309;45.292;11.820;2022-12-19T16:28:31;2.02;97.48
67722;SHT31;58309;45.292;11.820;2022-12-19T16:31:11;1.92;97.30
67722;SHT31;58309;45.292;11.820;2022-12-19T16:33:37;1.91;97.85
67722;SHT31;58309;45.292;11.820;2022-12-19T16:36:07;1.86;97.76
67722;SHT31;58309;45.292;11.820;2022-12-19T16:38:33;1.85;97.92
67722;SHT31;58309;45.292;11.820;2022-12-19T16:40:59;1.78;97.73
67722;SHT31;58309;45.292;11.820;2022-12-19T16:43:35;1.75;98.10
67722;SHT31;58309;45.292;11.820;2022-12-19T16:46:03;1.79;98.81
67722;SHT31;58309;45.292;11.820;2022-12-19T16:48:29;1.78;98.48
67722;SHT31;58309;45.292;11.820;2022-12-19T16:50:57;1.75;98.39
67722;SHT31;58309;45.292;11.820;2022-12-19T16:53:22;1.75;99.39
67722;SHT31;58309;45.292;11.820;2022-12-19T16:55:48;1.78;99.41
67722;SHT31;58309;45.292;11.820;2022-12-19T16:58:19;1.77;99.01
67722;SHT31;58309;45.292;11.820;2022-12-19T17:00:46;1.73;98.85
67722;SHT31;58309;45.292;11.820;2022-12-19T17:05:49;1.67;99.31
67722;SHT31;58309;45.292;11.820;2022-12-19T17:08:15;1.65;99.10
67722;SHT31;58309;45.292;11.820;2022-12-19T17:10:42;1.64;99.19
67722;SHT31;58309;45.292;11.820;2022-12-19T17:13:09;1.63;99.30
67722;SHT31;58309;45.292;11.820;2022-12-19T17:15:37;1.63;99.53
67722;SHT31;58309;45.292;11.820;2022-12-19T17:18:13;1.60;99.46
67722;SHT31;58309;45.292;11.820;2022-12-19T17:20:41;1.57;99.49
67722;SHT31;58309;45.292;11.820;2022-12-19T17:23:16;1.57;99.92
67722;SHT31;58309;45.292;11.820;2022-12-19T17:25:42;1.54;99.71
67722;SHT31;58309;45.292;11.820;2022-12-19T17:28:08;1.57;99.99
67722;SHT31;58309;45.292;11.820;2022-12-19T17:30:35;1.57;99.99
67722;SHT31;58309;45.292;11.820;2022-12-19T17:33:02;1.55;99.91
67722;SHT31;58309;45.292;11.820;2022-12-19T17:35:31;1.53;99.93
67722;SHT31;58309;45.292;11.820;2022-12-19T17:37:58;1.55;99.99
67722;SHT31;58309;45.292;11.820;2022-12-19T17:40:27;1.57;99.99
67722;SHT31;58309;45.292;11.820;2022-12-19T17:42:53;1.55;99.99
67722;SHT31;58309;45.292;11.820;2022-12-19T17:45:19;1.58;99.99
67722;SHT31;58309;45.292;11.820;2022-12-19T17:47:47;1.57;99.99
67722;SHT31;58309;45.292;11.820;2022-12-19T17:50:25;1.55;99.99
67722;SHT31;58309;45.292;11.820;2022-12-19T17:52:52;1.53;99.99
67722;SHT31;58309;45.292;11.820;2022-12-19T17:57:47;1.47;99.99
67722;SHT31;58309;45.292;11.820;2022-12-19T18:00:14;1.42;99.99
67722;SHT31;58309;45.292;11.820;2022-12-19T18:02:40;1.39;99.99
67722;SHT31;58309;45.292;11.820;2022-12-19T18:05:06;1.40;99.99